sensor_id;sensor_type;location;lat;lon;timestamp;pressure;altitude;pressure_sealevel;temperature;humidity
2184;BME280;1098;48.940;8.962;2023-01-27T00:01:30;98780.06;;;-0.81;100.00
2184;BME280;1098;48.940;8.962;2023-01-27T00:03:59;98773.63;;;-0.51;100.00
2184;BME280;1098;48.940;8.962;2023-01-27T00:06:33;98781.97;;;0.07;100.00
2184;BME280;1098;48.940;8.962;2023-01-27T00:09:02;98773.66;;;-0.61;100.00
2184;BME280;1098;48.940;8.962;2023-01-27T00:11:30;98778.78;;;-0.77;100.00
2184;BME280;1098;48.940;8.962;2023-01-27T00:14:15;98782.59;;;-0.62;100.00
2184;BME280;1098;48.940;8.962;2023-01-27T00:16:43;98776.97;;;-0.31;100.00
2184;BME280;1098;48.940;8.962;2023-01-27T00:19:13;98780.31;;;-0.75;100.00
2184;BME280;1098;48.940;8.962;2023-01-27T00:21:46;98774.28;;;-0.94;100.00
2184;BME280;1098;48.940;8.962;2023-01-27T00:24:32;98778.31;;;-0.63;100.00
2184;BME280;1098;48.940;8.962;2023-01-27T00:27:03;98775.00;;;-1.02;100.00
2184;BME280;1098;48.940;8.962;2023-01-27T00:29:31;98775.16;;;-1.04;100.00
2184;BME280;1098;48.940;8.962;2023-01-27T00:31:59;98780.06;;;-0.81;100.00
2184;BME280;1098;48.940;8.962;2023-01-27T00:34:46;98774.16;;;-1.02;100.00
2184;BME280;1098;48.940;8.962;2023-01-27T00:37:15;98783.72;;;-0.19;100.00
2184;BME280;1098;48.940;8.962;2023-01-27T00:39:43;98780.28;;;-0.92;100.00
2184;BME280;1098;48.940;8.962;2023-01-27T00:42:11;98779.47;;;-0.75;100.00
2184;BME280;1098;48.940;8.962;2023-01-27T00:44:39;98779.91;;;-0.52;100.00
2184;BME280;1098;48.940;8.962;2023-01-27T00:47:27;98781.81;;;-0.09;100.00
2184;BME280;1098;48.940;8.962;2023-01-27T00:49:57;98772.13;;;-0.81;100.00
2184;BME280;1098;48.940;8.962;2023-01-27T00:52:25;98771.41;;;-0.20;100.00
2184;BME280;1098;48.940;8.962;2023-01-27T00:54:53;98777.66;;;-0.29;100.00
2184;BME280;1098;48.940;8.962;2023-01-27T00:57:21;98772.34;;;-1.02;100.00
2184;BME280;1098;48.940;8.962;2023-01-27T00:59:49;98776.31;;;-0.61;100.00
2184;BME280;1098;48.940;8.962;2023-01-27T01:02:17;98777.34;;;-0.09;100.00
2184;BME280;1098;48.940;8.962;2023-01-27T01:04:45;98775.19;;;-0.41;100.00
2184;BME280;1098;48.940;8.962;2023-01-27T01:07:15;98775.22;;;0.13;100.00
2184;BME280;1098;48.940;8.962;2023-01-27T01:09:43;98775.56;;;-0.71;100.00
2184;BME280;1098;48.940;8.962;2023-01-27T01:12:11;98772.66;;;-0.32;100.00
2184;BME280;1098;48.940;8.962;2023-01-27T01:14:39;98774.69;;;-0.26;100.00
2184;BME280;1098;48.940;8.962;2023-01-27T01:17:09;98772.88;;;-0.44;100.00
2184;BME280;1098;48.940;8.962;2023-01-27T01:19:37;98778.09;;;-0.79;100.00
2184;BME280;1098;48.940;8.962;2023-01-27T01:22:05;98787.44;;;-0.48;100.00
2184;BME280;1098;48.940;8.962;2023-01-27T01:24:35;98791.91;;;-0.30;100.00
2184;BME280;1098;48.940;8.962;2023-01-27T01:27:03;98786.75;;;0.04;100.00
2184;BME280;1098;48.940;8.962;2023-01-27T01:29:31;98782.44;;;0.20;100.00
2184;BME280;1098;48.940;8.962;2023-01-27T01:31:59;98776.53;;;0.34;100.00
2184;BME280;1098;48.940;8.962;2023-01-27T01:34:30;98779.81;;;0.28;100.00
2184;BME280;1098;48.940;8.962;2023-01-27T01:36:58;98775.81;;;-0.64;100.00
2184;BME280;1098;48.940;8.962;2023-01-27T01:39:26;98768.28;;;-0.69;100.00
2184;BME280;1098;48.940;8.962;2023-01-27T01:41:55;98743.97;;;-1.19;100.00
2184;BME280;1098;48.940;8.962;2023-01-27T01:44:24;98765.91;;;-0.09;100.00
2184;BME280;1098;48.940;8.962;2023-01-27T01:46:52;98767.28;;;0.21;100.00
2184;BME280;1098;48.940;8.962;2023-01-27T01:49:22;98765.69;;;-0.79;100.00
2184;BME280;1098;48.940;8.962;2023-01-27T01:51:54;98763.78;;;-1.14;100.00
2184;BME280;1098;48.940;8.962;2023-01-27T01:54:26;98763.88;;;-1.06;100.00
2184;BME280;1098;48.940;8.962;2023-01-27T01:56:59;98756.41;;;-0.92;100.00
2184;BME280;1098;48.940;8.962;2023-01-27T01:59:29;98755.13;;;-1.16;100.00
2184;BME280;1098;48.940;8.962;2023-01-27T02:01:59;98758.44;;;-1.04;100.00
2184;BME280;1098;48.940;8.962;2023-01-27T02:04:31;98755.91;;;-0.78;100.00
2184;BME280;1098;48.940;8.962;2023-01-27T02:07:02;98759.59;;;-0.89;100.00
2184;BME280;1098;48.940;8.962;2023-01-27T02:09:32;98759.00;;;-0.83;100.00
2184;BME280;1098;48.940;8.962;2023-01-27T02:12:01;98753.72;;;-1.10;100.00
2184;BME280;1098;48.940;8.962;2023-01-27T02:14:30;98756.50;;;-0.84;100.00
2184;BME280;1098;48.940;8.962;2023-01-27T02:16:58;98758.25;;;-1.02;100.00
2184;BME280;1098;48.940;8.962;2023-01-27T02:19:28;98753.06;;;-0.94;100.00
2184;BME280;1098;48.940;8.962;2023-01-27T02:22:00;98755.94;;;-1.06;100.00
2184;BME280;1098;48.940;8.962;2023-01-27T02:24:30;98753.28;;;-1.06;100.00
2184;BME280;1098;48.940;8.962;2023-01-27T02:27:00;98745.94;;;-0.66;100.00
2184;BME280;1098;48.940;8.962;2023-01-27T02:29:28;98751.94;;;-0.64;100.00
2184;BME280;1098;48.940;8.962;2023-01-27T02:31:57;98752.47;;;-1.16;100.00
2184;BME280;1098;48.940;8.962;2023-01-27T02:34:25;98744.50;;;-1.06;100.00
2184;BME280;1098;48.940;8.962;2023-01-27T02:36:55;98756.38;;;-1.10;100.00
2184;BME280;1098;48.940;8.962;2023-01-27T02:39:41;98751.09;;;-0.65;100.00
2184;BME280;1098;48.940;8.962;2023-01-27T02:42:11;98745.16;;;-0.77;100.00
2184;BME280;1098;48.940;8.962;2023-01-27T02:44:43;98744.47;;;-0.61;100.00
2184;BME280;1098;48.940;8.962;2023-01-27T02:47:18;98739.41;;;0.25;100.00
2184;BME280;1098;48.940;8.962;2023-01-27T02:49:46;98745.88;;;-0.21;100.00
2184;BME280;1098;48.940;8.962;2023-01-27T02:52:16;98745.16;;;-0.77;100.00
2184;BME280;1098;48.940;8.962;2023-01-27T02:54:44;98744.16;;;-1.03;100.00
2184;BME280;1098;48.940;8.962;2023-01-27T02:57:13;98748.56;;;-1.12;100.00
2184;BME280;1098;48.940;8.962;2023-01-27T02:59:54;98749.69;;;-1.14;100.00
2184;BME280;1098;48.940;8.962;2023-01-27T03:02:24;98748.00;;;-1.15;100.00
2184;BME280;1098;48.940;8.962;2023-01-27T03:04:56;98749.66;;;-1.05;100.00
2184;BME280;1098;48.940;8.962;2023-01-27T03:07:24;98746.44;;;-1.08;100.00
2184;BME280;1098;48.940;8.962;2023-01-27T03:09:54;98751.44;;;-0.60;100.00
2184;BME280;1098;48.940;8.962;2023-01-27T03:12:24;98749.16;;;-0.90;100.00
2184;BME280;1098;48.940;8.962;2023-01-27T03:14:52;98756.25;;;-1.18;100.00
2184;BME280;1098;48.940;8.962;2023-01-27T03:17:38;98753.44;;;-1.17;100.00
2184;BME280;1098;48.940;8.962;2023-01-27T03:20:24;98744.78;;;-1.09;100.00
2184;BME280;1098;48.940;8.962;2023-01-27T03:22:52;98748.56;;;-1.12;100.00
2184;BME280;1098;48.940;8.962;2023-01-27T03:25:22;98743.97;;;-1.19;100.00
2184;BME280;1098;48.940;8.962;2023-01-27T03:27:55;98748.88;;;-0.97;100.00
2184;BME280;1098;48.940;8.962;2023-01-27T03:30:29;98748.69;;;-1.13;100.00
2184;BME280;1098;48.940;8.962;2023-01-27T03:33:12;98724.88;;;-1.23;100.00
2184;BME280;1098;48.940;8.962;2023-01-27T03:35:56;98755.94;;;-1.06;100.00
2184;BME280;1098;48.940;8.962;2023-01-27T03:38:50;98744.56;;;-0.98;100.00
2184;BME280;1098;48.940;8.962;2023-01-27T03:41:35;98748.34;;;-1.00;100.00
2184;BME280;1098;48.940;8.962;2023-01-27T03:44:26;98745.63;;;-1.09;100.00
2184;BME280;1098;48.940;8.962;2023-01-27T03:47:12;98755.38;;;-1.09;100.00
2184;BME280;1098;48.940;8.962;2023-01-27T03:49:42;98760.16;;;-1.22;100.00
2184;BME280;1098;48.940;8.962;2023-01-27T03:52:13;98762.06;;;-1.05;100.00
2184;BME280;1098;48.940;8.962;2023-01-27T03:54:41;98757.03;;;-1.35;100.00
2184;BME280;1098;48.940;8.962;2023-01-27T03:57:09;98762.09;;;-1.15;100.00
2184;BME280;1098;48.940;8.962;2023-01-27T03:59:39;98768.66;;;-1.19;100.00
2184;BME280;1098;48.940;8.962;2023-01-27T04:02:09;98769.94;;;-1.23;100.00
2184;BME280;1098;48.940;8.962;2023-01-27T04:04:55;98778.09;;;-0.79;100.00
2184;BME280;1098;48.940;8.962;2023-01-27T04:07:41;98773.19;;;-0.11;100.00
2184;BME280;1098;48.940;8.962;2023-01-27T04:10:12;98768.09;;;-0.85;100.00
2184;BME280;1098;48.940;8.962;2023-01-27T04:12:40;98763.44;;;-0.56;100.00
2184;BME280;1098;48.940;8.962;2023-01-27T04:15:11;98771.69;;;-1.04;100.00
2184;BME280;1098;48.940;8.962;2023-01-27T04:17:45;98773.69;;;-0.88;100.00
2184;BME280;1098;48.940;8.962;2023-01-27T04:20:13;98775.66;;;-1.18;100.00
2184;BME280;1098;48.940;8.962;2023-01-27T04:22:41;98773.16;;;-0.92;100.00
2184;BME280;1098;48.940;8.962;2023-01-27T04:25:09;98774.00;;;-0.91;100.00
2184;BME280;1098;48.940;8.962;2023-01-27T04:27:39;98771.91;;;-0.97;100.00
2184;BME280;1098;48.940;8.962;2023-01-27T04:30:11;98776.41;;;0.00;100.00
2184;BME280;1098;48.940;8.962;2023-01-27T04:32:56;98775.38;;;-0.87;100.00
2184;BME280;1098;48.940;8.962;2023-01-27T04:35:30;98779.31;;;-0.91;100.00
2184;BME280;1098;48.940;8.962;2023-01-27T04:38:04;98780.28;;;-0.92;100.00
2184;BME280;1098;48.940;8.962;2023-01-27T04:40:32;98782.72;;;-0.36;100.00
2184;BME280;1098;48.940;8.962;2023-01-27T04:43:00;98780.84;;;-0.98;100.00
2184;BME280;1098;48.940;8.962;2023-01-27T04:45:30;98777.66;;;-1.02;100.00
2184;BME280;1098;48.940;8.962;2023-01-27T04:47:58;98783.50;;;-0.44;100.00
2184;BME280;1098;48.940;8.962;2023-01-27T04:50:26;98788.03;;;-0.18;100.00
2184;BME280;1098;48.940;8.962;2023-01-27T04:52:55;98791.97;;;-0.85;100.00
2184;BME280;1098;48.940;8.962;2023-01-27T04:55:23;98786.69;;;-0.85;100.00
2184;BME280;1098;48.940;8.962;2023-01-27T04:57:51;98786.59;;;-0.48;100.00
2184;BME280;1098;48.940;8.962;2023-01-27T05:00:19;98787.69;;;-0.96;100.00
2184;BME280;1098;48.940;8.962;2023-01-27T05:02:48;98780.50;;;-1.13;100.00
2184;BME280;1098;48.940;8.962;2023-01-27T05:05:16;98784.69;;;-0.56;100.00
2184;BME280;1098;48.940;8.962;2023-01-27T05:07:44;98783.50;;;-0.08;100.00
2184;BME280;1098;48.940;8.962;2023-01-27T05:10:15;98772.91;;;-0.98;100.00
2184;BME280;1098;48.940;8.962;2023-01-27T05:12:43;98778.09;;;-0.79;100.00
2184;BME280;1098;48.940;8.962;2023-01-27T05:15:11;98776.81;;;-1.02;100.00
2184;BME280;1098;48.940;8.962;2023-01-27T05:17:40;98779.97;;;-1.17;100.00
2184;BME280;1098;48.940;8.962;2023-01-27T05:20:10;98778.28;;;-1.18;100.00
2184;BME280;1098;48.940;8.962;2023-01-27T05:22:38;98779.66;;;-0.59;100.00
2184;BME280;1098;48.940;8.962;2023-01-27T05:25:08;98777.91;;;-0.95;100.00
2184;BME280;1098;48.940;8.962;2023-01-27T05:27:37;98777.75;;;-0.84;100.00
2184;BME280;1098;48.940;8.962;2023-01-27T05:30:06;98775.97;;;-0.93;100.00
2184;BME280;1098;48.940;8.962;2023-01-27T05:32:35;98779.22;;;-0.37;100.00
2184;BME280;1098;48.940;8.962;2023-01-27T05:35:03;98781.69;;;-0.98;100.00
2184;BME280;1098;48.940;8.962;2023-01-27T05:37:33;98799.78;;;-1.11;100.00
2184;BME280;1098;48.940;8.962;2023-01-27T05:40:01;98772.28;;;-1.20;100.00
2184;BME280;1098;48.940;8.962;2023-01-27T05:42:29;98804.63;;;-1.07;100.00
2184;BME280;1098;48.940;8.962;2023-01-27T05:44:57;98797.38;;;-1.05;100.00
2184;BME280;1098;48.940;8.962;2023-01-27T05:47:25;98804.38;;;-1.13;100.00
2184;BME280;1098;48.940;8.962;2023-01-27T05:49:55;98803.69;;;-0.60;100.00
2184;BME280;1098;48.940;8.962;2023-01-27T05:52:23;98806.00;;;-0.75;100.00
2184;BME280;1098;48.940;8.962;2023-01-27T05:54:53;98816.22;;;-1.08;100.00
2184;BME280;1098;48.940;8.962;2023-01-27T05:57:21;98816.38;;;-1.09;100.00
2184;BME280;1098;48.940;8.962;2023-01-27T05:59:49;98817.81;;;-0.87;100.00
2184;BME280;1098;48.940;8.962;2023-01-27T06:02:17;98822.59;;;-1.00;100.00
2184;BME280;1098;48.940;8.962;2023-01-27T06:04:48;98819.69;;;-0.70;100.00
2184;BME280;1098;48.940;8.962;2023-01-27T06:07:16;98821.31;;;-0.96;100.00
2184;BME280;1098;48.940;8.962;2023-01-27T06:09:45;98813.66;;;-0.99;100.00
2184;BME280;1098;48.940;8.962;2023-01-27T06:12:14;98812.81;;;-1.00;100.00
2184;BME280;1098;48.940;8.962;2023-01-27T06:14:43;98802.22;;;-0.73;100.00
2184;BME280;1098;48.940;8.962;2023-01-27T06:17:11;98804.44;;;-0.95;100.00
2184;BME280;1098;48.940;8.962;2023-01-27T06:19:39;98802.13;;;-0.81;100.00
2184;BME280;1098;48.940;8.962;2023-01-27T06:22:07;98795.78;;;-0.97;100.00
2184;BME280;1098;48.940;8.962;2023-01-27T06:24:35;98810.44;;;-0.93;100.00
2184;BME280;1098;48.940;8.962;2023-01-27T06:27:03;98813.38;;;-0.96;100.00
2184;BME280;1098;48.940;8.962;2023-01-27T06:29:33;98809.88;;;-0.97;100.00
2184;BME280;1098;48.940;8.962;2023-01-27T06:32:01;98806.66;;;-0.91;100.00
2184;BME280;1098;48.940;8.962;2023-01-27T06:34:29;98806.53;;;-0.99;100.00
2184;BME280;1098;48.940;8.962;2023-01-27T06:36:57;98803.66;;;-0.78;100.00
2184;BME280;1098;48.940;8.962;2023-01-27T06:39:25;98808.25;;;-0.80;100.00
2184;BME280;1098;48.940;8.962;2023-01-27T06:41:53;98815.03;;;-0.86;100.00
2184;BME280;1098;48.940;8.962;2023-01-27T06:44:21;98826.22;;;-1.01;100.00
2184;BME280;1098;48.940;8.962;2023-01-27T06:46:51;98841.97;;;-0.90;100.00
2184;BME280;1098;48.940;8.962;2023-01-27T06:49:19;98842.00;;;-1.00;100.00
2184;BME280;1098;48.940;8.962;2023-01-27T06:51:47;98837.66;;;-0.91;100.00
2184;BME280;1098;48.940;8.962;2023-01-27T06:54:15;98840.44;;;-0.93;100.00
2184;BME280;1098;48.940;8.962;2023-01-27T06:56:43;98831.78;;;-0.85;100.00
2184;BME280;1098;48.940;8.962;2023-01-27T06:59:11;98847.28;;;-0.90;100.00
2184;BME280;1098;48.940;8.962;2023-01-27T07:01:39;98843.25;;;-0.94;100.00
2184;BME280;1098;48.940;8.962;2023-01-27T07:04:10;98852.25;;;-0.78;100.00
2184;BME280;1098;48.940;8.962;2023-01-27T07:06:38;98859.38;;;-0.78;100.00
2184;BME280;1098;48.940;8.962;2023-01-27T07:09:07;98855.81;;;-0.96;100.00
2184;BME280;1098;48.940;8.962;2023-01-27T07:11:36;98861.22;;;-0.88;100.00
2184;BME280;1098;48.940;8.962;2023-01-27T07:14:04;98873.53;;;-0.97;100.00
2184;BME280;1098;48.940;8.962;2023-01-27T07:16:36;98881.78;;;-1.00;100.00
2184;BME280;1098;48.940;8.962;2023-01-27T07:19:04;98876.75;;;-0.93;100.00
2184;BME280;1098;48.940;8.962;2023-01-27T07:21:34;98885.09;;;-0.88;100.00
2184;BME280;1098;48.940;8.962;2023-01-27T07:24:02;98892.09;;;-0.97;100.00
2184;BME280;1098;48.940;8.962;2023-01-27T07:26:31;98885.88;;;-0.78;100.00
2184;BME280;1098;48.940;8.962;2023-01-27T07:28:59;98884.69;;;-0.84;100.00
2184;BME280;1098;48.940;8.962;2023-01-27T07:31:27;98886.50;;;-0.94;100.00
2184;BME280;1098;48.940;8.962;2023-01-27T07:33:55;98893.19;;;-0.90;100.00
2184;BME280;1098;48.940;8.962;2023-01-27T07:36:23;98891.25;;;-0.97;100.00
2184;BME280;1098;48.940;8.962;2023-01-27T07:38:52;98889.16;;;-0.84;100.00
2184;BME280;1098;48.940;8.962;2023-01-27T07:41:21;98892.09;;;-0.97;100.00
2184;BME280;1098;48.940;8.962;2023-01-27T07:43:51;98895.44;;;-0.85;100.00
2184;BME280;1098;48.940;8.962;2023-01-27T07:46:19;98902.69;;;-0.87;100.00
2184;BME280;1098;48.940;8.962;2023-01-27T07:48:52;98904.66;;;-0.89;100.00
2184;BME280;1098;48.940;8.962;2023-01-27T07:51:20;98904.94;;;-0.92;100.00
2184;BME280;1098;48.940;8.962;2023-01-27T07:53:48;98906.75;;;-0.93;100.00
2184;BME280;1098;48.940;8.962;2023-01-27T07:56:19;98907.31;;;-0.89;100.00
2184;BME280;1098;48.940;8.962;2023-01-27T07:58:47;98911.59;;;-0.79;100.00
2184;BME280;1098;48.940;8.962;2023-01-27T08:01:15;98909.75;;;-0.78;100.00
2184;BME280;1098;48.940;8.962;2023-01-27T08:03:43;98912.81;;;-0.73;100.00
2184;BME280;1098;48.940;8.962;2023-01-27T08:06:13;98909.97;;;-0.89;100.00
2184;BME280;1098;48.940;8.962;2023-01-27T08:08:42;98912.72;;;-0.81;100.00
2184;BME280;1098;48.940;8.962;2023-01-27T08:11:10;98912.13;;;-0.75;100.00
2184;BME280;1098;48.940;8.962;2023-01-27T08:13:41;98919.38;;;-0.67;100.00
2184;BME280;1098;48.940;8.962;2023-01-27T08:16:13;98915.50;;;-0.83;100.00
2184;BME280;1098;48.940;8.962;2023-01-27T08:18:44;98919.00;;;-0.82;100.00
2184;BME280;1098;48.940;8.962;2023-01-27T08:21:12;98921.06;;;-0.76;100.00
2184;BME280;1098;48.940;8.962;2023-01-27T08:23:40;98917.63;;;-0.86;100.00
2184;BME280;1098;48.940;8.962;2023-01-27T08:26:09;98917.44;;;-0.75;100.00
2184;BME280;1098;48.940;8.962;2023-01-27T08:28:38;98922.47;;;-0.82;100.00
2184;BME280;1098;48.940;8.962;2023-01-27T08:31:09;98919.69;;;-0.80;100.00
2184;BME280;1098;48.940;8.962;2023-01-27T08:33:38;98928.38;;;-0.88;100.00
2184;BME280;1098;48.940;8.962;2023-01-27T08:36:07;98930.00;;;-0.67;100.00
2184;BME280;1098;48.940;8.962;2023-01-27T08:38:38;98934.25;;;-0.84;100.00
2184;BME280;1098;48.940;8.962;2023-01-27T08:41:08;98926.78;;;-0.71;100.00
2184;BME280;1098;48.940;8.962;2023-01-27T08:43:36;98924.81;;;-0.69;100.00
2184;BME280;1098;48.940;8.962;2023-01-27T08:46:05;98928.56;;;-0.62;100.00
2184;BME280;1098;48.940;8.962;2023-01-27T08:48:35;98942.03;;;-0.83;100.00
2184;BME280;1098;48.940;8.962;2023-01-27T08:51:07;98937.53;;;-0.63;100.00
2184;BME280;1098;48.940;8.962;2023-01-27T08:53:36;98928.97;;;-0.57;100.00
2184;BME280;1098;48.940;8.962;2023-01-27T08:56:05;98912.19;;;-0.85;100.00
2184;BME280;1098;48.940;8.962;2023-01-27T08:58:33;98941.44;;;-0.67;100.00
2184;BME280;1098;48.940;8.962;2023-01-27T09:01:02;98942.56;;;-0.79;100.00
2184;BME280;1098;48.940;8.962;2023-01-27T09:03:31;98949.56;;;-0.78;100.00
2184;BME280;1098;48.940;8.962;2023-01-27T09:06:02;98954.16;;;-0.80;100.00
2184;BME280;1098;48.940;8.962;2023-01-27T09:08:30;98951.50;;;-0.71;100.00
2184;BME280;1098;48.940;8.962;2023-01-27T09:10:58;98949.47;;;-0.86;100.00
2184;BME280;1098;48.940;8.962;2023-01-27T09:13:27;98953.59;;;-0.64;100.00
2184;BME280;1098;48.940;8.962;2023-01-27T09:15:55;98947.31;;;-0.73;100.00
2184;BME280;1098;48.940;8.962;2023-01-27T09:18:23;98934.28;;;-0.57;100.00
2184;BME280;1098;48.940;8.962;2023-01-27T09:20:51;98934.88;;;-0.73;100.00
2184;BME280;1098;48.940;8.962;2023-01-27T09:23:21;98938.72;;;-0.48;100.00
2184;BME280;1098;48.940;8.962;2023-01-27T09:25:49;98930.09;;;-0.59;100.00
2184;BME280;1098;48.940;8.962;2023-01-27T09:28:17;98934.53;;;-0.50;100.00
2184;BME280;1098;48.940;8.962;2023-01-27T09:30:45;98936.00;;;-0.65;100.00
2184;BME280;1098;48.940;8.962;2023-01-27T09:33:14;98943.41;;;-0.69;100.00
2184;BME280;1098;48.940;8.962;2023-01-27T09:35:42;98944.56;;;-0.44;100.00
2184;BME280;1098;48.940;8.962;2023-01-27T09:38:12;98957.94;;;-0.36;100.00
2184;BME280;1098;48.940;8.962;2023-01-27T09:40:46;98956.94;;;-0.35;100.00
2184;BME280;1098;48.940;8.962;2023-01-27T09:43:26;98958.94;;;-0.10;100.00
2184;BME280;1098;48.940;8.962;2023-01-27T09:46:04;98961.09;;;0.22;100.00
2184;BME280;1098;48.940;8.962;2023-01-27T09:48:39;98954.13;;;0.21;100.00
2184;BME280;1098;48.940;8.962;2023-01-27T09:51:13;98952.88;;;-0.02;100.00
2184;BME280;1098;48.940;8.962;2023-01-27T09:56:41;98926.44;;;-0.21;100.00
2184;BME280;1098;48.940;8.962;2023-01-27T09:59:14;98951.66;;;-0.08;100.00
2184;BME280;1098;48.940;8.962;2023-01-27T10:01:47;98951.41;;;-0.14;100.00
2184;BME280;1098;48.940;8.962;2023-01-27T10:04:27;98951.69;;;0.10;100.00
2184;BME280;1098;48.940;8.962;2023-01-27T10:07:06;98941.44;;;-0.03;100.00
2184;BME280;1098;48.940;8.962;2023-01-27T10:12:28;98943.78;;;-0.27;100.00
2184;BME280;1098;48.940;8.962;2023-01-27T10:15:04;98938.97;;;-0.14;100.00
2184;BME280;1098;48.940;8.962;2023-01-27T10:17:43;98935.72;;;-0.08;100.00
2184;BME280;1098;48.940;8.962;2023-01-27T10:20:18;98933.97;;;0.01;100.00
2184;BME280;1098;48.940;8.962;2023-01-27T10:22:53;98939.22;;;-0.07;100.00
2184;BME280;1098;48.940;8.962;2023-01-27T10:25:25;98945.69;;;0.08;100.00
2184;BME280;1098;48.940;8.962;2023-01-27T10:27:57;98948.44;;;0.16;100.00
2184;BME280;1098;48.940;8.962;2023-01-27T10:30:27;98943.13;;;0.16;100.00
2184;BME280;1098;48.940;8.962;2023-01-27T10:33:01;98937.53;;;0.19;100.00
2184;BME280;1098;48.940;8.962;2023-01-27T10:35:31;98941.31;;;0.34;100.00
2184;BME280;1098;48.940;8.962;2023-01-27T10:38:04;98942.44;;;0.14;100.00
2184;BME280;1098;48.940;8.962;2023-01-27T10:40:36;98933.50;;;0.51;100.00
2184;BME280;1098;48.940;8.962;2023-01-27T10:43:09;98934.94;;;0.27;100.00
2184;BME280;1098;48.940;8.962;2023-01-27T10:45:41;98935.34;;;0.05;100.00
2184;BME280;1098;48.940;8.962;2023-01-27T10:48:24;98936.47;;;0.03;100.00
2184;BME280;1098;48.940;8.962;2023-01-27T10:50:55;98941.59;;;0.14;100.00
2184;BME280;1098;48.940;8.962;2023-01-27T10:53:28;98947.91;;;-0.15;100.00
2184;BME280;1098;48.940;8.962;2023-01-27T10:55:59;98944.66;;;-0.09;100.00
2184;BME280;1098;48.940;8.962;2023-01-27T10:58:35;98948.41;;;-0.02;100.00
2184;BME280;1098;48.940;8.962;2023-01-27T11:01:06;98954.16;;;-0.06;100.00
2184;BME280;1098;48.940;8.962;2023-01-27T11:03:51;98943.47;;;0.04;100.00
2184;BME280;1098;48.940;8.962;2023-01-27T11:06:22;98952.38;;;-0.15;100.00
2184;BME280;1098;48.940;8.962;2023-01-27T11:08:52;98951.94;;;-0.11;100.00
2184;BME280;1098;48.940;8.962;2023-01-27T11:11:21;98941.75;;;0.12;100.00
2184;BME280;1098;48.940;8.962;2023-01-27T11:14:11;98949.13;;;0.18;100.00
2184;BME280;1098;48.940;8.962;2023-01-27T11:16:40;98948.09;;;0.02;100.00
2184;BME280;1098;48.940;8.962;2023-01-27T11:19:12;98949.88;;;0.11;100.00
2184;BME280;1098;48.940;8.962;2023-01-27T11:21:41;98955.34;;;-0.18;100.00
2184;BME280;1098;48.940;8.962;2023-01-27T11:24:15;98958.22;;;-0.02;100.00
2184;BME280;1098;48.940;8.962;2023-01-27T11:26:52;98948.94;;;0.02;100.00
2184;BME280;1098;48.940;8.962;2023-01-27T11:29:27;98949.59;;;-0.14;100.00
2184;BME280;1098;48.940;8.962;2023-01-27T11:32:00;98938.38;;;-0.08;100.00
2184;BME280;1098;48.940;8.962;2023-01-27T11:34:32;98947.50;;;-0.20;100.00
2184;BME280;1098;48.940;8.962;2023-01-27T11:37:08;98944.13;;;-0.12;100.00
2184;BME280;1098;48.940;8.962;2023-01-27T11:39:37;98933.66;;;-0.14;100.00
2184;BME280;1098;48.940;8.962;2023-01-27T11:42:07;98935.44;;;-0.05;100.00
2184;BME280;1098;48.940;8.962;2023-01-27T11:44:36;98936.81;;;-0.01;100.00
2184;BME280;1098;48.940;8.962;2023-01-27T11:47:06;98931.63;;;-0.02;100.00
2184;BME280;1098;48.940;8.962;2023-01-27T11:49:36;98916.03;;;0.30;100.00
2184;BME280;1098;48.940;8.962;2023-01-27T11:52:08;98917.59;;;0.06;100.00
2184;BME280;1098;48.940;8.962;2023-01-27T11:54:38;98916.00;;;-0.05;100.00
2184;BME280;1098;48.940;8.962;2023-01-27T11:57:09;98917.41;;;0.17;100.00
2184;BME280;1098;48.940;8.962;2023-01-27T11:59:46;98917.75;;;0.04;100.00
2184;BME280;1098;48.940;8.962;2023-01-27T12:02:18;98916.75;;;0.05;100.00
2184;BME280;1098;48.940;8.962;2023-01-27T12:04:50;98919.72;;;0.02;100.00
2184;BME280;1098;48.940;8.962;2023-01-27T12:07:24;98913.56;;;0.02;100.00
2184;BME280;1098;48.940;8.962;2023-01-27T12:09:54;98923.28;;;-0.07;100.00
2184;BME280;1098;48.940;8.962;2023-01-27T12:12:23;98921.59;;;-0.08;100.00
2184;BME280;1098;48.940;8.962;2023-01-27T12:14:53;98926.47;;;-0.04;100.00
2184;BME280;1098;48.940;8.962;2023-01-27T12:17:27;98912.56;;;0.03;100.00
2184;BME280;1098;48.940;8.962;2023-01-27T12:19:57;98913.06;;;0.16;100.00
2184;BME280;1098;48.940;8.962;2023-01-27T12:22:27;98911.25;;;0.16;100.00
2184;BME280;1098;48.940;8.962;2023-01-27T12:24:59;98906.91;;;0.15;100.00
2184;BME280;1098;48.940;8.962;2023-01-27T12:27:28;98916.59;;;0.07;100.00
2184;BME280;1098;48.940;8.962;2023-01-27T12:29:59;98907.22;;;0.12;100.00
2184;BME280;1098;48.940;8.962;2023-01-27T12:32:32;98913.81;;;0.08;100.00
2184;BME280;1098;48.940;8.962;2023-01-27T12:35:01;98898.56;;;0.10;100.00
2184;BME280;1098;48.940;8.962;2023-01-27T12:37:30;98916.03;;;0.13;100.00
2184;BME280;1098;48.940;8.962;2023-01-27T12:39:58;98913.59;;;0.19;100.00
2184;BME280;1098;48.940;8.962;2023-01-27T12:42:31;98913.22;;;0.32;100.00
2184;BME280;1098;48.940;8.962;2023-01-27T12:45:01;98903.28;;;0.16;100.00
2184;BME280;1098;48.940;8.962;2023-01-27T12:47:38;98905.00;;;0.25;100.00
2184;BME280;1098;48.940;8.962;2023-01-27T12:50:16;98900.28;;;0.02;100.00
2184;BME280;1098;48.940;8.962;2023-01-27T12:52:51;98908.09;;;0.03;100.00
2184;BME280;1098;48.940;8.962;2023-01-27T12:55:29;98898.69;;;0.09;100.00
2184;BME280;1098;48.940;8.962;2023-01-27T12:57:57;98909.78;;;0.22;100.00
2184;BME280;1098;48.940;8.962;2023-01-27T13:00:28;98912.66;;;0.11;100.00
2184;BME280;1098;48.940;8.962;2023-01-27T13:02:59;98916.09;;;0.21;100.00
2184;BME280;1098;48.940;8.962;2023-01-27T13:05:33;98917.00;;;0.29;100.00
2184;BME280;1098;48.940;8.962;2023-01-27T13:08:02;98912.91;;;0.17;100.00
2184;BME280;1098;48.940;8.962;2023-01-27T13:10:31;98923.53;;;-0.01;100.00
2184;BME280;1098;48.940;8.962;2023-01-27T13:13:00;98913.38;;;0.13;100.00
2184;BME280;1098;48.940;8.962;2023-01-27T13:15:30;98905.09;;;0.33;100.00
2184;BME280;1098;48.940;8.962;2023-01-27T13:18:10;98911.47;;;0.23;100.00
2184;BME280;1098;48.940;8.962;2023-01-27T13:20:39;98918.69;;;0.13;100.00
2184;BME280;1098;48.940;8.962;2023-01-27T13:23:12;98918.69;;;0.30;100.00
2184;BME280;1098;48.940;8.962;2023-01-27T13:25:43;98923.44;;;0.09;100.00
2184;BME280;1098;48.940;8.962;2023-01-27T13:28:14;98914.94;;;0.23;100.00
2184;BME280;1098;48.940;8.962;2023-01-27T13:30:46;98923.16;;;0.12;100.00
2184;BME280;1098;48.940;8.962;2023-01-27T13:33:21;98928.94;;;0.25;100.00
2184;BME280;1098;48.940;8.962;2023-01-27T13:35:54;98927.19;;;0.34;100.00
2184;BME280;1098;48.940;8.962;2023-01-27T13:38:28;98928.16;;;0.15;100.00